Wylie, Texas
Current Conditions -  °F | °C
As of 10:55 AM on Monday 22 Dec 2014 (Local Time) from KF46 Reporting Station
Clear Clear  
Wind Chill: 61°   Ceiling: Unl
Heat Index: 61°   Visibility: 10mi
Dew Point: 52°   Wind: 14mph
Humidity: 71%   Direction: 220°SW
Pressure: 29.59"   Gusts: 23mph
Location:  33.02°N, 96.51°W
Report Text: KF46 221655Z AUTO 22012G20KT 10SM CLR 16/11 A2959 RMK AO2 T01630111
Loading
Personal Weather Stations






























Interactive Weather Map New forecast layout! Learn more

10-Day Weather Forecast

Advertisements
Track Severe Weather on mobile